createdAt,value
2023-02-05T00:01:14.436Z,103441.78
2023-02-05T00:06:17.288Z,103477.78
2023-02-05T00:11:20.060Z,103466.50
2023-02-05T00:16:25.381Z,103475.16
2023-02-05T00:21:28.317Z,103487.28
2023-02-05T00:26:31.266Z,103481.06
2023-02-05T00:31:35.521Z,103494.06
2023-02-05T00:36:38.479Z,103510.59
2023-02-05T00:41:41.514Z,103531.38
2023-02-05T00:46:45.717Z,103541.88
2023-02-05T00:51:48.480Z,103534.03
2023-02-05T00:56:51.336Z,103539.09
2023-02-05T01:01:55.547Z,103500.06
2023-02-05T01:06:58.359Z,103502.66
2023-02-05T01:12:01.114Z,103507.00
2023-02-05T01:17:05.311Z,103522.53
2023-02-05T01:22:08.140Z,103533.81
2023-02-05T01:27:11.020Z,103513.78
2023-02-05T01:32:15.188Z,103512.03
2023-02-05T01:37:18.022Z,103522.44
2023-02-05T01:42:23.528Z,103508.47
2023-02-05T01:47:27.839Z,103512.97
2023-02-05T01:52:30.657Z,103489.44
2023-02-05T01:57:33.499Z,103507.53
2023-02-05T02:02:37.970Z,103510.75
2023-02-05T02:07:41.147Z,103496.78
2023-02-05T02:12:48.763Z,103487.00
2023-02-05T02:17:55.100Z,103460.88
2023-02-05T02:23:08.212Z,103469.25
2023-02-05T02:28:13.331Z,103465.72
2023-02-05T02:33:19.708Z,103464.88
2023-02-05T02:38:28.489Z,103477.09
2023-02-05T02:43:38.633Z,103474.53
2023-02-05T02:48:42.928Z,103470.13
2023-02-05T02:53:50.881Z,103470.38
2023-02-05T02:58:58.748Z,103465.28
2023-02-05T03:04:06.224Z,103468.06
2023-02-05T03:09:13.296Z,103461.97
2023-02-05T03:14:17.637Z,103444.66
2023-02-05T03:19:20.706Z,103423.81
2023-02-05T03:24:23.750Z,103402.91
2023-02-05T03:29:31.401Z,103385.53
2023-02-05T03:34:47.102Z,103372.59
2023-02-05T03:40:00.022Z,103369.09
2023-02-05T03:45:25.764Z,103355.19
2023-02-05T03:50:33.788Z,103348.13
2023-02-05T03:55:40.137Z,103348.22
2023-02-05T04:00:44.670Z,103354.25
2023-02-05T04:05:49.100Z,103363.88
2023-02-05T04:10:53.468Z,103367.31
2023-02-05T04:15:58.467Z,103366.34
2023-02-05T04:21:01.778Z,103359.19
2023-02-05T04:26:05.910Z,103356.38
2023-02-05T04:31:16.748Z,103359.72
2023-02-05T04:36:20.825Z,103376.78
2023-02-05T04:41:24.038Z,103397.78
2023-02-05T04:46:28.172Z,103421.78
2023-02-05T04:51:31.039Z,103446.22
2023-02-05T04:56:33.852Z,103450.00
2023-02-05T05:01:37.912Z,103473.06
2023-02-05T05:06:40.720Z,103469.50
2023-02-05T05:11:43.533Z,103503.88
2023-02-05T05:16:47.875Z,103527.00
2023-02-05T05:21:50.626Z,103553.66
2023-02-05T05:26:53.479Z,103571.59
2023-02-05T05:31:57.667Z,103589.69
2023-02-05T05:37:00.565Z,103603.63
2023-02-05T05:42:21.253Z,103607.09
2023-02-05T05:47:25.563Z,103615.88
2023-02-05T05:52:32.301Z,103616.19
2023-02-05T05:57:35.516Z,103633.53
2023-02-05T06:02:44.261Z,103650.81
2023-02-05T06:07:47.100Z,103655.06
2023-02-05T06:12:50.385Z,103660.31
2023-02-05T06:17:54.821Z,103676.72
2023-02-05T06:22:57.637Z,103684.44
2023-02-05T06:28:00.488Z,103699.41
2023-02-05T06:33:05.273Z,103710.84
2023-02-05T06:38:09.571Z,103712.41
2023-02-05T06:43:12.448Z,103701.56
2023-02-05T06:48:16.563Z,103709.38
2023-02-05T06:53:19.422Z,103725.19
2023-02-05T06:58:22.313Z,103726.72
2023-02-05T07:03:26.534Z,103732.97
2023-02-05T07:08:29.413Z,103737.72
2023-02-05T07:13:32.237Z,103759.03
2023-02-05T07:18:36.427Z,103761.75
2023-02-05T07:23:39.309Z,103771.28
2023-02-05T07:28:44.313Z,103739.59
2023-02-05T07:33:48.848Z,103771.34
2023-02-05T07:38:51.626Z,103776.09
2023-02-05T07:43:54.904Z,103790.00
2023-02-05T07:48:59.086Z,103750.38
2023-02-05T07:54:01.869Z,103786.22
2023-02-05T07:59:04.799Z,103794.25
2023-02-05T08:04:09.023Z,103810.09
2023-02-05T08:09:14.275Z,103810.53
2023-02-05T08:14:17.102Z,103834.59
2023-02-05T08:19:21.201Z,103844.47
2023-02-05T08:24:23.976Z,103821.59
2023-02-05T08:29:26.764Z,103858.91
2023-02-05T08:34:30.964Z,103880.31
2023-02-05T08:39:33.722Z,103899.44
2023-02-05T08:44:36.440Z,103894.66
2023-02-05T08:49:40.629Z,103917.41
2023-02-05T08:54:43.493Z,103926.84
2023-02-05T08:59:46.280Z,103928.91
2023-02-05T09:04:54.517Z,103932.59
2023-02-05T09:10:01.784Z,103930.91
2023-02-05T09:15:04.918Z,103925.56
2023-02-05T09:20:10.321Z,103922.16
2023-02-05T09:25:13.086Z,103920.50
2023-02-05T09:30:16.063Z,103928.41
2023-02-05T09:35:20.252Z,103932.16
2023-02-05T09:40:28.015Z,103943.13
2023-02-05T09:45:39.314Z,103950.97
2023-02-05T09:50:44.028Z,103969.41
2023-02-05T09:55:47.639Z,103982.91
2023-02-05T10:00:52.621Z,103955.44
2023-02-05T10:06:08.733Z,103948.03
2023-02-05T10:11:18.689Z,103973.88
2023-02-05T10:16:41.778Z,103967.00
2023-02-05T10:21:59.725Z,103959.78
2023-02-05T10:27:08.953Z,103971.22
2023-02-05T10:32:21.257Z,103968.31
2023-02-05T10:37:32.793Z,103976.22
2023-02-05T10:42:39.439Z,103988.44
2023-02-05T10:47:51.114Z,103992.28
2023-02-05T10:52:55.445Z,103998.66
2023-02-05T10:57:58.349Z,103986.94
2023-02-05T11:03:01.449Z,103989.28
2023-02-05T11:08:06.340Z,103974.75
2023-02-05T11:13:20.077Z,103974.31
2023-02-05T11:18:25.066Z,103974.78
2023-02-05T11:23:31.306Z,103974.25
2023-02-05T11:28:35.614Z,103976.31
2023-02-05T11:33:38.485Z,103975.97
2023-02-05T11:38:47.293Z,103986.16
2023-02-05T11:43:51.467Z,103993.09
2023-02-05T11:48:57.981Z,103986.34
2023-02-05T11:54:04.648Z,103979.91
2023-02-05T11:59:19.526Z,103981.66
2023-02-05T12:04:22.831Z,103985.09
2023-02-05T12:09:27.975Z,103986.94
2023-02-05T12:14:42.051Z,103990.97
2023-02-05T12:19:49.327Z,103982.50
2023-02-05T12:25:11.171Z,103977.75
2023-02-05T12:30:33.408Z,103975.16
2023-02-05T12:35:48.889Z,103979.94
2023-02-05T12:41:02.029Z,103978.16
2023-02-05T12:46:14.494Z,103973.66
2023-02-05T12:51:31.409Z,103989.75
2023-02-05T12:56:50.796Z,103981.75
2023-02-05T13:01:55.852Z,103987.84
2023-02-05T13:07:05.587Z,103981.72
2023-02-05T13:12:12.376Z,103993.78
2023-02-05T13:17:18.432Z,103996.81
2023-02-05T13:22:41.446Z,104012.66
2023-02-05T13:28:06.736Z,104023.06
2023-02-05T13:33:09.890Z,104025.25
2023-02-05T13:38:32.255Z,104022.97
2023-02-05T13:43:50.882Z,103976.34
2023-02-05T13:49:27.151Z,104032.50
2023-02-05T13:54:52.537Z,104031.66
2023-02-05T13:59:57.248Z,104051.56
2023-02-05T14:05:00.972Z,104044.91
2023-02-05T14:10:04.093Z,104043.66
2023-02-05T14:15:38.449Z,104040.63
2023-02-05T14:20:45.525Z,104044.31
2023-02-05T14:26:31.429Z,104056.06
2023-02-05T14:31:50.085Z,104073.00
2023-02-05T14:36:53.234Z,104066.41
2023-02-05T14:41:59.179Z,104070.53
2023-02-05T14:47:06.175Z,104077.75
2023-02-05T14:52:21.772Z,104077.81
2023-02-05T14:57:27.153Z,104086.88
2023-02-05T15:03:09.751Z,104077.78
2023-02-05T15:08:16.371Z,104100.69
2023-02-05T15:13:42.343Z,104101.66
2023-02-05T15:18:46.151Z,104102.00
2023-02-05T15:23:53.792Z,104110.03
2023-02-05T15:29:03.904Z,104128.75
2023-02-05T15:34:22.628Z,104129.31
2023-02-05T15:39:32.321Z,104125.31
2023-02-05T15:44:36.669Z,104145.94
2023-02-05T15:49:43.699Z,104153.09
2023-02-05T15:54:47.916Z,104162.06
2023-02-05T15:59:52.031Z,104188.38
2023-02-05T16:04:57.474Z,104200.41
2023-02-05T16:10:09.055Z,104208.13
2023-02-05T16:15:15.262Z,104200.31
2023-02-05T16:20:24.801Z,104204.44
2023-02-05T16:25:34.918Z,104207.91
2023-02-05T16:30:42.892Z,104207.53
2023-02-05T16:35:47.308Z,104210.84
2023-02-05T16:40:53.574Z,104212.84
2023-02-05T16:46:23.993Z,104223.47
2023-02-05T16:51:53.541Z,104233.41
2023-02-05T16:57:01.715Z,104232.19
2023-02-05T17:02:05.208Z,104238.00
2023-02-05T17:07:19.157Z,104246.63
2023-02-05T17:12:37.426Z,104237.66
2023-02-05T17:17:46.872Z,104234.78
2023-02-05T17:23:10.023Z,104232.25
2023-02-05T17:28:17.479Z,104234.47
2023-02-05T17:33:21.925Z,104227.13
2023-02-05T17:38:24.915Z,104232.00
2023-02-05T17:43:29.166Z,104226.28
2023-02-05T17:48:31.997Z,104214.31
2023-02-05T17:53:34.800Z,104224.44
2023-02-05T17:58:39.000Z,104221.25
2023-02-05T18:03:41.894Z,104180.66
2023-02-05T18:08:45.054Z,104190.22
2023-02-05T18:13:49.252Z,104200.34
2023-02-05T18:18:52.116Z,104207.84
2023-02-05T18:23:55.112Z,104217.09
2023-02-05T18:28:59.282Z,104217.56
2023-02-05T18:34:02.065Z,104204.28
2023-02-05T18:39:05.005Z,104183.81
2023-02-05T18:44:09.614Z,104200.72
2023-02-05T18:49:12.376Z,104200.00
2023-02-05T18:54:15.162Z,104211.25
2023-02-05T18:59:21.116Z,104201.69
2023-02-05T19:04:24.915Z,104210.22
2023-02-05T19:09:28.224Z,104195.78
2023-02-05T19:14:32.574Z,104219.38
2023-02-05T19:19:35.481Z,104212.28
2023-02-05T19:24:40.392Z,104215.97
2023-02-05T19:29:44.760Z,104227.22
2023-02-05T19:34:47.593Z,104227.91
2023-02-05T19:39:50.515Z,104225.00
2023-02-05T19:44:54.937Z,104222.91
2023-02-05T19:49:57.935Z,104216.66
2023-02-05T19:55:00.875Z,104224.00
2023-02-05T20:00:06.041Z,104226.19
2023-02-05T20:05:14.849Z,104221.13
2023-02-05T20:10:17.780Z,104217.69
2023-02-05T20:15:21.883Z,104231.88
2023-02-05T20:20:33.490Z,104214.41
2023-02-05T20:25:36.743Z,104228.97
2023-02-05T20:30:57.741Z,104238.25
2023-02-05T20:36:05.168Z,104242.97
2023-02-05T20:41:15.383Z,104240.03
2023-02-05T20:46:20.111Z,104241.00
2023-02-05T20:51:24.691Z,104232.09
2023-02-05T20:56:30.792Z,104240.47
2023-02-05T21:01:36.939Z,104246.25
2023-02-05T21:06:41.329Z,104244.56
2023-02-05T21:11:44.140Z,104245.53
2023-02-05T21:16:48.510Z,104241.56
2023-02-05T21:21:52.155Z,104231.81
2023-02-05T21:26:55.054Z,104235.75
2023-02-05T21:31:59.498Z,104232.44
2023-02-05T21:37:02.441Z,104231.81
2023-02-05T21:42:05.433Z,104230.41
2023-02-05T21:47:09.704Z,104229.75
2023-02-05T21:52:12.527Z,104239.38
2023-02-05T21:57:15.633Z,104247.50
2023-02-05T22:02:20.029Z,104264.28
2023-02-05T22:07:22.891Z,104252.31
2023-02-05T22:12:25.682Z,104262.81
2023-02-05T22:17:29.890Z,104262.19
2023-02-05T22:22:32.696Z,104268.34
2023-02-05T22:27:35.528Z,104263.28
2023-02-05T22:32:39.740Z,104254.63
2023-02-05T22:37:42.600Z,104243.47
2023-02-05T22:42:45.406Z,104247.84
2023-02-05T22:47:49.587Z,104244.44
2023-02-05T22:52:52.355Z,104250.41
2023-02-05T22:57:55.435Z,104252.81
2023-02-05T23:02:59.918Z,104245.75
2023-02-05T23:08:02.748Z,104255.41
2023-02-05T23:13:05.620Z,104261.47
2023-02-05T23:18:09.740Z,104275.22
2023-02-05T23:23:12.524Z,104283.78
2023-02-05T23:28:15.413Z,104286.44
2023-02-05T23:33:19.615Z,104281.28
2023-02-05T23:38:24.985Z,104271.03
2023-02-05T23:43:27.876Z,104268.34
2023-02-05T23:48:31.993Z,104269.22
2023-02-05T23:53:34.813Z,104269.34
2023-02-05T23:58:37.577Z,104261.81
